Terminal Aerodrome Forecast
Issued by NWS

Home | Current Version | Previous Version | Text Only | Print | Product List | Glossary Off
Versions: 1 2 3 4 5 6 7 8 9 10 11 12 13

000
FTUS43 KBIS 191123
TAFDIK
TAF
KDIK 191123Z 1912/2012 18010KT P6SM SKC
     FM191500 25009KT P6SM SKC
     FM191700 29011KT P6SM FEW130 FEW250
     FM192000 31017G25KT P6SM FEW140 SCT200
     FM200100 34012KT P6SM FEW110 FEW250
     FM200700 02007KT P6SM FEW110 SCT250=

USA.gov is the U.S. government's official web portal to all federal, state and local government web resources and services.